East Mansfield, Massachusetts
Current Conditions -  °F | °C
As of 4:53 PM on Saturday 25 Oct 2014 (Local Time) from KOWD Reporting Station
Clear Clear  
Wind Chill: 63°   Ceiling: Unl
Heat Index: 63°   Visibility: 10mi
Dew Point: 41°   Wind: 8mph
Humidity: 45%   Direction: 240°WSW
Pressure: 29.58"   Gusts: NA
Location:  42.02°N, 71.18°W
Report Text: KOWD 252053Z 24007KT 10SM CLR 17/05 A2958 RMK AO2 SLP017 T01720050 57020
Loading
Personal Weather Stations






























Interactive Weather Map
Tropical Storm Tracking
New forecast layout! Learn more

10-Day Weather Forecast

Advertisements
Track Severe Weather on mobile